Time;durP1;ratioP1;P1;durP2;ratioP2;P2;SDS_P1;SDS_P2;PMS_P1;PMS_P2;Temp;Humidity;BMP_temperature;BMP_pressure;BME280_temperature;BME280_humidity;BME280_pressure;Samples;Min_cycle;Max_cycle;Signal;HPM_P1;HPM_P2
2024/02/02 00:02:02;;;;;;;18.92;4.62;;;;;;;3.56;80.22;100575.53;1799013;79;26663;-43
2024/02/02 00:04:32;;;;;;;17.80;3.90;;;;;;;3.55;80.16;100579.25;1799184;79;25383;-44
2024/02/02 00:07:08;;;;;;;15.10;4.65;;;;;;;3.53;80.52;100580.84;1799137;79;28433;-44
2024/02/02 00:09:39;;;;;;;22.65;4.12;;;;;;;3.49;80.47;100582.94;1799046;79;25396;-44
2024/02/02 00:12:14;;;;;;;19.55;5.75;;;;;;;3.45;80.89;100583.19;1799200;79;25648;-43
2024/02/02 00:14:47;;;;;;;19.48;4.15;;;;;;;3.42;80.97;100600.53;1798977;79;26430;-42
2024/02/02 00:17:13;;;;;;;17.73;4.20;;;;;;;3.41;81.22;100591.45;1795803;79;25573;-45
2024/02/02 00:19:43;;;;;;;20.08;4.50;;;;;;;3.38;81.57;100586.60;1799086;79;28341;-44
2024/02/02 00:22:20;;;;;;;18.42;4.60;;;;;;;3.37;81.77;100595.13;1798918;79;25564;-44
2024/02/02 00:24:52;;;;;;;16.32;4.60;;;;;;;3.38;81.76;100594.08;1799055;79;25612;-43
2024/02/02 00:27:18;;;;;;;15.43;4.28;;;;;;;3.37;81.93;100597.80;1799144;79;25535;-48
2024/02/02 00:29:49;;;;;;;20.35;4.25;;;;;;;3.38;82.08;100599.97;1799155;79;25593;-42
2024/02/02 00:32:21;;;;;;;20.25;4.25;;;;;;;3.35;82.32;100595.92;1799078;79;27209;-46
2024/02/02 00:34:47;;;;;;;18.55;4.50;;;;;;;3.37;82.23;100605.83;1798968;79;25402;-44
2024/02/02 00:37:19;;;;;;;22.73;4.97;;;;;;;3.36;82.32;100602.89;1799055;79;25641;-44
2024/02/02 00:39:47;;;;;;;21.23;4.78;;;;;;;3.36;82.20;100602.89;1799179;79;25933;-45
2024/02/02 00:42:18;;;;;;;16.75;4.47;;;;;;;3.36;82.34;100604.23;1797570;79;25513;-44
2024/02/02 00:44:48;;;;;;;27.30;4.65;;;;;;;3.35;82.56;100608.78;1798999;79;27216;-48
2024/02/02 00:47:21;;;;;;;19.57;4.12;;;;;;;3.37;82.46;100611.17;1787649;79;25503;-43
2024/02/02 00:49:47;;;;;;;22.30;4.62;;;;;;;3.36;82.51;100611.72;1767976;81;25515;-44
2024/02/02 09:31:44;;;;;;;12.90;2.65;;;;;;;11.66;51.87;100858.38;1835541;77;26592;-48
2024/02/02 09:34:16;;;;;;;16.30;3.30;;;;;;;11.44;52.33;100856.38;1802727;78;25381;-46
2024/02/02 09:36:43;;;;;;;16.73;3.75;;;;;;;11.64;53.73;100865.45;1803224;78;25578;-46
2024/02/02 09:39:42;;;;;;;14.63;3.40;;;;;;;11.73;52.27;100850.64;1795485;79;25863;-46
2024/02/02 09:42:40;;;;;;;19.27;3.52;;;;;;;11.87;52.20;100850.08;1780580;78;25813;-45
2024/02/02 09:45:21;;;;;;;17.32;3.87;;;;;;;12.17;52.81;100856.52;1797501;78;27971;-45
2024/02/02 09:47:59;;;;;;;16.95;3.65;;;;;;;12.30;52.25;100859.75;1749175;81;25699;-45
2024/02/02 09:50:46;;;;;;;20.57;3.77;;;;;;;12.04;50.54;100865.75;1750855;81;25589;-46
2024/02/02 09:53:52;;;;;;;14.20;3.20;;;;;;;11.76;51.18;100862.23;1744926;81;25814;-46
2024/02/02 09:56:45;;;;;;;15.48;3.25;;;;;;;11.69;51.47;100865.34;1721232;82;25458;-45
2024/02/02 09:59:20;;;;;;;18.35;3.95;;;;;;;11.81;51.23;100859.98;1736179;82;27874;-45
2024/02/02 10:02:13;;;;;;;18.92;4.28;;;;;;;11.64;49.76;100865.45;1726514;82;25609;-46
2024/02/02 10:04:45;;;;;;;17.23;3.90;;;;;;;11.17;50.79;100870.95;1709960;82;25829;-44
2024/02/02 10:07:52;;;;;;;16.57;3.42;;;;;;;11.12;51.49;100867.55;1714101;82;26505;-46
2024/02/02 10:11:09;;;;;;;14.43;3.45;;;;;;;11.01;51.40;100866.34;1732621;82;25591;-46
2024/02/02 10:14:17;;;;;;;13.65;3.70;;;;;;;10.94;51.43;100860.52;1724980;82;28625;-45
2024/02/02 10:17:04;;;;;;;14.65;4.15;;;;;;;11.35;52.42;100862.48;1740234;82;25848;-45
2024/02/02 10:20:00;;;;;;;17.17;4.05;;;;;;;11.43;49.32;100855.58;1739932;81;25892;-46
2024/02/02 10:22:55;;;;;;;12.50;3.85;;;;;;;11.58;51.37;100862.05;1725640;82;25946;-46
2024/02/02 10:25:55;;;;;;;15.18;3.58;;;;;;;11.78;50.13;100848.64;1732161;81;25897;-45
2024/02/02 10:29:02;;;;;;;22.82;4.08;;;;;;;11.66;49.98;100844.83;1729408;81;27813;-44
2024/02/02 10:32:07;;;;;;;14.03;3.45;;;;;;;11.25;49.83;100842.37;1733213;78;25727;-47
2024/02/02 10:35:11;;;;;;;12.37;3.42;;;;;;;10.95;50.66;100854.58;1783376;78;25581;-45
2024/02/02 10:37:39;;;;;;;13.32;3.72;;;;;;;10.60;50.78;100848.66;1788564;79;25829;-46
2024/02/02 10:40:27;;;;;;;19.15;3.80;;;;;;;10.39;51.59;100844.13;1794874;78;25422;-45
2024/02/02 10:43:20;;;;;;;17.77;3.62;;;;;;;10.14;51.25;100837.16;1793672;78;31502;-45
2024/02/02 10:46:14;;;;;;;17.30;3.67;;;;;;;9.85;51.89;100841.59;1785162;79;25588;-46
2024/02/02 10:49:20;;;;;;;18.00;3.50;;;;;;;9.52;52.04;100846.86;1786923;78;25384;-46
2024/02/02 10:52:10;;;;;;;20.57;4.92;;;;;;;9.22;52.33;100848.00;1795522;78;25562;-44
2024/02/02 10:55:20;;;;;;;18.00;4.35;;;;;;;8.89;53.17;100846.99;1806159;78;25448;-45
2024/02/02 10:58:25;;;;;;;23.27;5.40;;;;;;;8.63;53.94;100845.04;1792127;79;27487;-45
2024/02/02 11:01:04;;;;;;;26.55;6.95;;;;;;;8.32;54.72;100840.64;1804406;79;25440;-47
2024/02/02 11:03:44;;;;;;;22.40;5.92;;;;;;;7.98;55.29;100837.34;1780065;78;25483;-48
2024/02/02 11:06:34;;;;;;;20.57;5.20;;;;;;;7.78;56.14;100831.55;1799365;78;26149;-45
2024/02/02 11:09:18;;;;;;;26.23;5.05;;;;;;;7.65;57.10;100835.62;1800375;78;25425;-45
2024/02/02 11:11:50;;;;;;;22.87;5.92;;;;;;;7.43;57.66;100829.25;1807056;78;27523;-48
2024/02/02 11:14:25;;;;;;;25.05;5.50;;;;;;;7.35;58.67;100832.50;1797383;78;25410;-45
2024/02/02 11:17:15;;;;;;;22.07;5.42;;;;;;;7.27;58.84;100839.78;1790173;78;25845;-46
2024/02/02 11:19:51;;;;;;;22.32;5.35;;;;;;;7.07;59.11;100840.11;1791650;78;26623;-45
2024/02/02 11:22:58;;;;;;;22.98;5.92;;;;;;;6.95;59.78;100836.08;1789372;78;25762;-43
2024/02/02 11:25:49;;;;;;;25.55;4.75;;;;;;;6.90;60.58;100841.75;1735069;81;27980;-44
2024/02/02 11:28:33;;;;;;;21.17;5.67;;;;;;;6.61;60.75;100826.71;1722986;81;25502;-45
2024/02/02 11:31:14;;;;;;;28.35;5.92;;;;;;;6.41;61.04;100824.02;1724487;81;25463;-45
2024/02/02 11:33:52;;;;;;;29.72;6.00;;;;;;;6.24;61.77;100828.30;1728690;81;25853;-45
2024/02/02 11:36:43;;;;;;;29.30;6.22;;;;;;;6.12;62.24;100830.69;1722369;82;25521;-46
2024/02/02 11:39:24;;;;;;;30.43;5.62;;;;;;;6.00;62.83;100833.36;1722926;82;27515;-45
2024/02/02 11:41:51;;;;;;;20.50;5.00;;;;;;;5.89;63.43;100829.78;1729414;81;25641;-45
2024/02/02 11:44:19;;;;;;;23.95;5.47;;;;;;;5.84;63.89;100825.75;1716359;82;25819;-44
2024/02/02 11:46:49;;;;;;;24.72;5.22;;;;;;;5.79;64.50;100821.98;1729159;81;26567;-50
2024/02/02 11:49:19;;;;;;;;;;;;;;;5.82;64.95;100812.59;1730891;81;25465;-45
2024/02/02 11:51:51;;;;;;;24.87;5.17;;;;;;;5.89;65.30;100814.51;1738292;81;28682;-45
2024/02/02 11:54:30;;;;;;;33.38;5.20;;;;;;;5.90;65.51;100814.76;1723769;81;25488;-44
2024/02/02 11:56:59;;;;;;;47.48;16.50;;;;;;;5.96;66.05;100807.58;1722741;81;25643;-45
2024/02/02 11:59:35;;;;;;;55.75;30.82;;;;;;;6.09;66.20;100803.01;1749772;79;25478;-44
2024/02/02 12:02:39;;;;;;;24.25;6.80;;;;;;;6.18;66.27;100795.26;1804508;78;25805;-44
2024/02/02 12:05:22;;;;;;;20.32;5.92;;;;;;;6.27;66.42;100792.30;1789408;79;27388;-44
2024/02/02 12:08:13;;;;;;;26.02;5.40;;;;;;;6.28;65.85;100796.61;1804541;78;25525;-49
2024/02/02 12:10:43;;;;;;;22.35;5.67;;;;;;;6.28;65.81;100782.34;1797162;78;25541;-44
2024/02/02 12:13:15;;;;;;;26.15;5.58;;;;;;;6.27;65.78;100798.22;1796891;78;26449;-44
2024/02/02 12:15:41;;;;;;;20.27;5.65;;;;;;;6.27;65.86;100795.53;1793304;78;25448;-45
2024/02/02 12:18:08;;;;;;;23.30;4.90;;;;;;;6.39;66.52;100785.32;1798950;79;27367;-44
2024/02/02 12:20:35;;;;;;;23.98;5.10;;;;;;;6.62;66.13;100795.25;1800967;78;26103;-43
2024/02/02 12:23:01;;;;;;;20.17;4.92;;;;;;;6.63;65.69;100784.78;1807093;79;25529;-44
2024/02/02 12:25:29;;;;;;;26.65;5.65;;;;;;;6.70;65.79;100781.27;1794671;78;25815;-44
2024/02/02 12:27:56;;;;;;;28.92;6.37;;;;;;;6.77;65.78;100782.34;1792044;78;25575;-44
2024/02/02 12:30:23;;;;;;;16.95;4.55;;;;;;;6.85;66.41;100771.83;1813449;78;27842;-46
2024/02/02 12:32:57;;;;;;;24.07;5.25;;;;;;;7.23;65.97;100774.16;1796036;79;25469;-44
2024/02/02 12:35:25;;;;;;;21.10;5.03;;;;;;;7.29;65.29;100769.03;1789277;78;25392;-43
2024/02/02 12:37:53;;;;;;;22.98;5.03;;;;;;;7.27;64.72;100769.30;1782917;79;26189;-44
2024/02/02 12:40:20;;;;;;;27.75;5.10;;;;;;;7.21;64.51;100756.94;1793325;78;25451;-44
2024/02/02 12:42:48;;;;;;;27.40;4.97;;;;;;;7.22;65.13;100748.31;1791538;79;27493;-43
2024/02/02 12:45:16;;;;;;;18.82;5.00;;;;;;;7.37;65.12;100740.73;1786250;78;25772;-45
2024/02/02 12:47:44;;;;;;;24.52;5.90;;;;;;;7.48;64.62;100747.69;1795313;78;25783;-45
2024/02/02 12:50:16;;;;;;;25.57;5.35;;;;;;;7.46;64.42;100743.13;1769822;78;25808;-46
2024/02/02 12:52:48;;;;;;;21.90;5.65;;;;;;;7.33;64.23;100740.48;1809981;78;25369;-45
2024/02/02 12:55:15;;;;;;;24.60;6.17;;;;;;;7.23;64.14;100748.05;1791936;78;27862;-45
2024/02/02 12:57:41;;;;;;;21.30;5.60;;;;;;;7.02;64.23;100745.98;1790257;78;25903;-45
2024/02/02 13:00:16;;;;;;;26.93;5.80;;;;;;;6.84;64.62;100744.66;1784528;78;25375;-44
2024/02/02 13:02:45;;;;;;;22.00;7.37;;;;;;;6.71;64.98;100741.22;1790384;79;26218;-44
2024/02/02 13:05:18;;;;;;;17.85;5.50;;;;;;;6.60;65.30;100739.62;1782579;79;25438;-44
2024/02/02 13:07:51;;;;;;;29.15;6.85;;;;;;;6.49;65.35;100740.18;1787469;79;27940;-46
2024/02/02 13:10:44;;;;;;;24.32;5.58;;;;;;;6.36;65.76;100738.28;1794328;78;25575;-45
2024/02/02 13:13:21;;;;;;;16.82;5.60;;;;;;;6.31;66.26;100738.28;1807078;79;25397;-44
2024/02/02 13:15:48;;;;;;;30.37;9.60;;;;;;;6.33;66.98;100729.95;1794153;78;25548;-45
2024/02/02 13:18:18;;;;;;;30.15;9.05;;;;;;;6.35;66.92;100728.63;1790107;79;25860;-44
2024/02/02 13:20:52;;;;;;;20.35;5.50;;;;;;;6.34;66.90;100731.58;1774689;79;27501;-43
2024/02/02 13:23:27;;;;;;;22.58;6.22;;;;;;;6.33;67.03;100721.38;1801794;78;25683;-44
2024/02/02 13:26:03;;;;;;;24.20;6.50;;;;;;;6.28;66.93;100727.27;1785752;78;25527;-43
2024/02/02 13:28:38;;;;;;;19.87;5.17;;;;;;;6.20;66.89;100726.47;1776214;78;26565;-45
2024/02/02 13:31:04;;;;;;;25.92;6.03;;;;;;;6.13;67.07;100727.56;1800147;78;25507;-43
2024/02/02 13:33:31;;;;;;;22.65;5.40;;;;;;;6.04;66.81;100725.13;1803245;79;27463;-44
2024/02/02 13:36:01;;;;;;;22.07;4.80;;;;;;;5.93;66.97;100715.44;1787346;78;25533;-44
2024/02/02 13:38:31;;;;;;;19.57;5.45;;;;;;;5.83;67.11;100732.33;1795167;78;25636;-44
2024/02/02 13:40:57;;;;;;;19.57;4.95;;;;;;;5.73;67.36;100729.63;1788209;79;25383;-44
2024/02/02 13:43:27;;;;;;;17.20;5.47;;;;;;;5.66;67.66;100712.44;1790472;78;25904;-43
2024/02/02 13:46:07;;;;;;;25.82;6.40;;;;;;;5.58;68.00;100730.39;1800404;79;27407;-43
2024/02/02 13:48:43;;;;;;;17.95;5.95;;;;;;;5.50;68.12;100721.51;1793125;78;25730;-43
2024/02/02 13:51:09;;;;;;;17.52;6.15;;;;;;;5.46;68.47;100719.89;1798512;79;25456;-44
2024/02/02 13:53:36;;;;;;;20.00;6.50;;;;;;;5.42;68.94;100713.45;1794340;78;25612;-44
2024/02/02 13:56:06;;;;;;;25.77;6.50;;;;;;;5.41;69.15;100723.90;1791793;78;25448;-44
2024/02/02 13:58:40;;;;;;;20.20;6.12;;;;;;;5.36;69.50;100712.64;1783183;78;27490;-44
2024/02/02 14:01:16;;;;;;;26.10;6.25;;;;;;;5.35;69.57;100704.31;1798281;78;25452;-44
2024/02/02 14:03:46;;;;;;;21.02;6.47;;;;;;;5.34;69.72;100712.07;1801263;78;25703;-45
2024/02/02 14:06:15;;;;;;;20.35;6.72;;;;;;;5.31;69.89;100704.58;1784813;79;25547;-43
2024/02/02 14:08:46;;;;;;;19.73;6.50;;;;;;;5.27;69.84;100702.13;1796971;78;25649;-43
2024/02/02 14:11:31;;;;;;;20.20;7.28;;;;;;;5.23;69.96;100695.15;1782290;78;27455;-44
2024/02/02 14:13:58;;;;;;;27.07;7.67;;;;;;;5.22;70.17;100694.86;1786109;79;25454;-43
2024/02/02 14:16:27;;;;;;;24.63;8.08;;;;;;;5.22;70.57;100687.36;1807132;79;25599;-44
2024/02/02 14:19:06;;;;;;;25.08;7.92;;;;;;;5.21;70.58;100681.20;1783810;78;25605;-44
2024/02/02 14:21:40;;;;;;;31.62;9.20;;;;;;;5.22;70.60;100686.02;1800567;78;33010;-44
2024/02/02 14:24:15;;;;;;;27.20;8.35;;;;;;;5.19;70.81;100679.84;1798796;79;27571;-44
2024/02/02 14:26:56;;;;;;;26.62;7.65;;;;;;;5.14;71.17;100670.44;1809303;78;25388;-43
2024/02/02 14:29:25;;;;;;;20.85;7.42;;;;;;;5.11;71.23;100670.95;1812102;78;25414;-43
2024/02/02 14:31:54;;;;;;;24.63;9.20;;;;;;;5.08;71.29;100667.48;1789720;78;25509;-44
2024/02/02 14:34:22;;;;;;;29.10;8.68;;;;;;;5.07;71.72;100664.52;1776448;79;33043;-43
2024/02/02 14:36:49;;;;;;;31.48;8.63;;;;;;;5.06;71.71;100652.99;1798844;78;27459;-44
2024/02/02 14:39:22;;;;;;;31.42;9.45;;;;;;;5.07;71.74;100652.45;1803048;78;26222;-44
2024/02/02 14:41:57;;;;;;;41.40;13.10;;;;;;;5.06;71.94;100644.95;1784887;79;25577;-45
2024/02/02 14:44:26;;;;;;;50.23;14.90;;;;;;;5.06;71.93;100639.59;1790636;78;25580;-45
2024/02/02 14:46:53;;;;;;;42.85;13.35;;;;;;;5.06;71.92;100643.61;1788799;79;33193;-47
2024/02/02 14:49:24;;;;;;;37.40;11.10;;;;;;;5.05;71.95;100632.60;1787067;79;27470;-45
2024/02/02 14:51:56;;;;;;;30.68;11.40;;;;;;;5.03;72.46;100630.72;1788156;78;25433;-46
2024/02/02 14:54:23;;;;;;;33.80;10.13;;;;;;;4.99;72.53;100629.11;1793554;78;25628;-44
2024/02/02 14:56:50;;;;;;;33.83;8.53;;;;;;;4.94;72.53;100617.54;1790977;78;26476;-45
2024/02/02 14:59:23;;;;;;;32.17;8.55;;;;;;;4.89;72.73;100617.02;1797625;79;25516;-46
2024/02/02 15:01:45;;;;;;;37.00;9.70;;;;;;;4.85;73.03;100618.07;1790863;79;27453;-44
2024/02/02 15:04:12;;;;;;;20.05;7.75;;;;;;;4.82;73.04;100612.44;1795628;78;26172;-44
2024/02/02 15:06:39;;;;;;;30.48;8.08;;;;;;;4.80;73.44;100616.71;1787758;79;25384;-44
2024/02/02 15:09:08;;;;;;;30.90;8.20;;;;;;;4.76;74.04;100608.91;1800087;78;25742;-44
2024/02/02 15:11:34;;;;;;;26.25;7.58;;;;;;;4.74;73.61;100599.53;1794043;79;25453;-46
2024/02/02 15:14:02;;;;;;;30.77;8.73;;;;;;;4.71;73.68;100594.15;1784372;79;28100;-45
2024/02/02 15:16:32;;;;;;;36.38;15.65;;;;;;;4.71;73.59;100594.69;1794679;78;25814;-47
2024/02/02 15:18:59;;;;;;;36.05;15.35;;;;;;;4.70;74.14;100592.55;1791840;79;25584;-46
2024/02/02 15:21:26;;;;;;;22.15;6.90;;;;;;;4.72;74.20;100589.62;1796734;78;25568;-49
2024/02/02 15:23:52;;;;;;;24.07;8.18;;;;;;;4.73;74.04;100581.29;1790991;78;25476;-47
2024/02/02 15:26:19;;;;;;;24.80;7.75;;;;;;;4.74;73.98;100582.91;1802271;78;28276;-44
2024/02/02 15:28:46;;;;;;;24.43;8.38;;;;;;;4.73;74.11;100585.31;1792277;79;25523;-44
2024/02/02 15:31:12;;;;;;;24.50;7.28;;;;;;;4.70;74.27;100584.52;1787922;79;25519;-43
2024/02/02 15:33:41;;;;;;;30.20;7.92;;;;;;;4.67;74.54;100581.81;1807270;78;25645;-43
2024/02/02 15:36:13;;;;;;;26.17;8.37;;;;;;;4.64;74.57;100585.01;1800940;78;25786;-44
2024/02/02 15:38:40;;;;;;;26.10;7.53;;;;;;;4.61;74.62;100582.84;1789896;78;27807;-44
2024/02/02 15:41:09;;;;;;;20.10;8.53;;;;;;;4.59;74.67;100582.85;1793867;78;25494;-45
2024/02/02 15:43:37;;;;;;;23.45;8.50;;;;;;;4.57;74.58;100583.66;1798873;78;25792;-44
2024/02/02 15:46:04;;;;;;;27.62;8.68;;;;;;;4.55;74.66;100579.89;1797654;78;25823;-45
2024/02/02 15:48:35;;;;;;;23.25;8.15;;;;;;;4.52;75.21;100576.94;1796480;78;25188;-46
2024/02/02 15:51:01;;;;;;;52.85;20.88;;;;;;;4.51;75.22;100581.47;1791141;78;27477;-43
2024/02/02 15:53:28;;;;;;;92.78;58.08;;;;;;;4.49;76.05;100573.72;1797805;78;25733;-43
2024/02/02 15:55:55;;;;;;;45.12;18.98;;;;;;;4.52;75.60;100570.23;1805666;78;25428;-46
2024/02/02 15:58:22;;;;;;;23.55;8.60;;;;;;;4.55;75.54;100569.72;1809200;78;25770;-45
2024/02/02 16:00:48;;;;;;;23.87;8.83;;;;;;;4.57;76.13;100569.71;1809237;78;25386;-42
2024/02/02 16:03:15;;;;;;;24.30;8.95;;;;;;;4.63;75.92;100567.85;1794942;78;28056;-44
2024/02/02 16:05:43;;;;;;;30.05;9.40;;;;;;;4.64;75.48;100572.95;1787990;79;25406;-43
2024/02/02 16:08:09;;;;;;;25.80;9.95;;;;;;;4.62;75.44;100563.58;1804775;78;25800;-43
2024/02/02 16:10:36;;;;;;;29.52;9.78;;;;;;;4.63;75.33;100558.47;1802448;78;25768;-43
2024/02/02 16:13:04;;;;;;;24.82;9.70;;;;;;;4.64;75.30;100546.70;1796215;78;25456;-43
2024/02/02 16:15:32;;;;;;;30.57;11.03;;;;;;;4.64;75.46;100548.04;1794131;78;33035;-44
2024/02/02 16:18:01;;;;;;;27.27;11.30;;;;;;;4.62;75.25;100532.77;1793910;79;25647;-44
2024/02/02 16:20:30;;;;;;;29.65;11.33;;;;;;;4.64;75.32;100525.27;1800871;79;25526;-45
2024/02/02 16:22:57;;;;;;;26.00;10.88;;;;;;;4.64;75.46;100517.23;1804814;78;25884;-45
2024/02/02 16:25:24;;;;;;;33.40;11.97;;;;;;;4.64;75.29;100512.66;1801192;78;25097;-44
2024/02/02 16:27:52;;;;;;;30.27;11.65;;;;;;;4.64;75.42;100509.19;1794065;78;28548;-44
2024/02/02 16:30:19;;;;;;;29.37;11.18;;;;;;;4.61;75.56;100501.13;1796752;78;25570;-43
2024/02/02 16:32:46;;;;;;;26.62;11.48;;;;;;;4.64;75.40;100490.44;1786789;78;25499;-45
2024/02/02 16:35:13;;;;;;;31.40;11.45;;;;;;;4.61;75.39;100486.39;1797016;78;26242;-43
2024/02/02 16:37:41;;;;;;;25.85;12.15;;;;;;;4.62;75.52;100479.98;1787726;79;25615;-42
2024/02/02 16:40:10;;;;;;;32.10;11.50;;;;;;;4.62;75.71;100478.64;1795540;78;27529;-45
2024/02/02 16:42:39;;;;;;;31.12;12.78;;;;;;;4.62;75.98;100473.83;1775086;78;25706;-44
2024/02/02 16:45:07;;;;;;;28.00;12.13;;;;;;;4.59;76.43;100481.05;1788717;78;25862;-44
2024/02/02 16:47:34;;;;;;;31.63;12.73;;;;;;;4.56;76.16;100472.19;1787134;79;26217;-44
2024/02/02 16:50:02;;;;;;;26.60;11.95;;;;;;;4.55;76.38;100466.58;1798984;79;25515;-44
2024/02/02 16:52:28;;;;;;;29.18;13.40;;;;;;;4.53;76.45;100465.50;1789649;78;27012;-44
2024/02/02 16:54:55;;;;;;;28.98;13.70;;;;;;;4.53;76.74;100464.16;1801755;78;25563;-43
2024/02/02 16:57:22;;;;;;;24.32;12.05;;;;;;;4.52;76.71;100459.06;1806995;79;25553;-44
2024/02/02 16:59:49;;;;;;;33.70;13.90;;;;;;;4.51;77.26;100444.84;1789061;78;25714;-43
2024/02/02 17:02:16;;;;;;;27.95;13.05;;;;;;;4.51;77.59;100444.05;1797398;79;25509;-44
2024/02/02 17:04:42;;;;;;;31.55;13.05;;;;;;;4.50;77.79;100439.23;1797488;79;27864;-44
2024/02/02 17:07:09;;;;;;;23.35;12.45;;;;;;;4.47;77.60;100427.16;1814893;78;25943;-44
2024/02/02 17:09:39;;;;;;;27.85;13.25;;;;;;;4.45;77.89;100423.95;1810653;78;25606;-44
2024/02/02 17:12:07;;;;;;;;;;;;;;;4.45;78.73;100425.83;1798556;78;26175;-44
2024/02/02 17:14:34;;;;;;;23.20;11.15;;;;;;;4.42;78.65;100423.67;1795599;78;25469;-45
2024/02/02 17:17:00;;;;;;;25.12;11.63;;;;;;;4.35;78.68;100411.08;1786128;78;27525;-44
2024/02/02 17:19:28;;;;;;;28.90;11.45;;;;;;;4.35;79.81;100423.13;1805125;78;25617;-44
2024/02/02 17:21:54;;;;;;;26.23;11.75;;;;;;;4.30;79.37;100413.20;1798681;78;25541;-47
2024/02/02 17:24:21;;;;;;;23.90;11.10;;;;;;;4.32;79.85;100416.95;1795272;78;26447;-45
2024/02/02 17:26:48;;;;;;;30.45;11.70;;;;;;;4.29;79.95;100404.88;1779537;79;25700;-44
2024/02/02 17:29:15;;;;;;;28.55;12.28;;;;;;;4.24;79.94;100390.97;1792829;78;27428;-44
2024/02/02 17:31:49;;;;;;;26.10;12.03;;;;;;;4.22;80.19;100398.98;1795266;78;25492;-44
2024/02/02 17:34:15;;;;;;;25.77;11.53;;;;;;;4.19;80.37;100405.67;1793401;79;25407;-45
2024/02/02 17:36:43;;;;;;;29.27;12.65;;;;;;;4.17;80.43;100392.27;1780856;78;26511;-45
2024/02/02 17:39:10;;;;;;;27.85;11.38;;;;;;;4.18;80.65;100399.25;1788148;78;25607;-44
2024/02/02 17:41:37;;;;;;;27.82;12.25;;;;;;;4.15;81.53;100394.41;1780486;79;27484;-44
2024/02/02 17:44:06;;;;;;;30.30;11.78;;;;;;;4.14;81.02;100381.57;1795337;78;25528;-44
2024/02/02 17:46:32;;;;;;;32.70;12.37;;;;;;;4.13;81.21;100366.56;1791768;78;25499;-44
2024/02/02 17:48:59;;;;;;;25.23;10.55;;;;;;;4.10;81.34;100367.91;1796629;78;25872;-43
2024/02/02 17:51:25;;;;;;;22.98;10.95;;;;;;;4.09;81.20;100356.92;1777735;79;25718;-44
2024/02/02 17:53:53;;;;;;;37.35;14.73;;;;;;;4.09;81.46;100346.75;1801893;79;28181;-47
2024/02/02 17:56:20;;;;;;;34.45;14.15;;;;;;;4.07;82.07;100351.55;1786549;78;25549;-46
2024/02/02 17:58:53;;;;;;;25.55;12.00;;;;;;;4.07;81.86;100353.70;1791193;79;25541;-45
2024/02/02 18:01:16;;;;;;;28.55;11.03;;;;;;;4.06;82.51;100334.69;1796614;78;25641;-45
2024/02/02 18:03:43;;;;;;;24.40;11.28;;;;;;;4.05;82.13;100324.24;1782866;79;25540;-43
2024/02/02 18:06:10;;;;;;;23.00;10.95;;;;;;;4.02;82.47;100320.23;1796580;79;27474;-44
2024/02/02 18:08:36;;;;;;;29.15;11.57;;;;;;;4.02;83.63;100328.78;1788296;79;26271;-45
2024/02/02 18:11:06;;;;;;;27.30;11.22;;;;;;;3.97;83.22;100319.40;1801835;78;25791;-44
2024/02/02 18:13:32;;;;;;;24.55;11.03;;;;;;;3.93;84.59;100309.25;1797004;78;25774;-45
2024/02/02 18:15:59;;;;;;;33.55;11.68;;;;;;;3.91;84.93;100299.31;1789904;79;25761;-45
2024/02/02 18:18:26;;;;;;;26.37;11.33;;;;;;;3.87;84.48;100296.91;1790720;79;27475;-46
2024/02/02 18:20:53;;;;;;;30.32;12.28;;;;;;;3.87;84.69;100300.92;1792429;79;25708;-45
2024/02/02 18:23:19;;;;;;;30.82;13.90;;;;;;;3.81;87.05;100291.27;1789184;78;25722;-45
2024/02/02 18:25:46;;;;;;;35.88;12.58;;;;;;;3.78;86.26;100288.31;1789855;79;26225;-47
2024/02/02 18:28:14;;;;;;;31.60;12.50;;;;;;;3.77;87.34;100286.18;1788248;78;25800;-46
2024/02/02 18:30:41;;;;;;;24.30;12.10;;;;;;;3.72;87.31;100275.46;1794970;79;27462;-43
2024/02/02 18:33:07;;;;;;;31.95;13.32;;;;;;;3.68;87.30;100273.85;1784710;78;25547;-44
2024/02/02 18:35:34;;;;;;;29.82;12.60;;;;;;;3.68;88.73;100279.75;1788299;78;25585;-46
2024/02/02 18:38:02;;;;;;;26.05;13.25;;;;;;;3.65;87.86;100265.01;1807072;79;25548;-45
2024/02/02 18:40:28;;;;;;;33.18;14.83;;;;;;;3.61;88.61;100262.60;1798759;78;25783;-46
2024/02/02 18:42:55;;;;;;;37.00;13.72;;;;;;;3.63;89.31;100261.00;1789484;79;28472;-45
2024/02/02 18:45:22;;;;;;;28.07;13.10;;;;;;;3.60;89.41;100260.19;1802187;78;25599;-44
2024/02/02 18:47:48;;;;;;;27.02;12.43;;;;;;;3.58;88.97;100263.13;1792915;78;25558;-45
2024/02/02 18:50:16;;;;;;;26.77;13.60;;;;;;;3.57;89.56;100250.80;1800320;78;26418;-47
2024/02/02 18:52:42;;;;;;;29.98;14.18;;;;;;;3.55;89.51;100238.23;1807128;79;25373;-44
2024/02/02 18:55:09;;;;;;;29.82;14.98;;;;;;;3.53;90.51;100240.37;1790382;78;27883;-46
2024/02/02 18:57:36;;;;;;;34.80;13.98;;;;;;;3.51;91.13;100235.28;1812157;78;25607;-43
2024/02/02 19:00:04;;;;;;;28.57;13.60;;;;;;;3.48;90.79;100231.80;1784494;79;25769;-45
2024/02/02 19:02:30;;;;;;;28.35;14.05;;;;;;;3.49;91.80;100234.75;1791630;78;26216;-44
2024/02/02 19:04:57;;;;;;;24.98;14.40;;;;;;;3.45;91.39;100227.51;1792563;79;25420;-48
2024/02/02 19:07:25;;;;;;;31.00;13.70;;;;;;;3.42;92.00;100213.32;1790316;79;27836;-46
2024/02/02 19:09:52;;;;;;;31.65;15.15;;;;;;;3.42;93.48;100209.31;1792579;79;25535;-45
2024/02/02 19:12:19;;;;;;;32.20;14.13;;;;;;;3.40;92.88;100199.41;1786339;78;25529;-45
2024/02/02 19:14:45;;;;;;;33.00;14.95;;;;;;;3.40;93.44;100201.55;1796244;78;25866;-47
2024/02/02 19:17:12;;;;;;;33.88;14.55;;;;;;;3.40;93.42;100192.73;1805371;78;25385;-45
2024/02/02 19:19:40;;;;;;;30.65;15.13;;;;;;;3.38;93.77;100188.98;1796378;78;27557;-44
2024/02/02 19:22:06;;;;;;;30.60;14.73;;;;;;;3.39;93.34;100181.75;1779115;79;27092;-44
2024/02/02 19:24:37;;;;;;;26.25;13.68;;;;;;;3.37;93.83;100188.70;1789144;79;25620;-45
2024/02/02 19:27:04;;;;;;;32.73;14.05;;;;;;;3.35;93.72;100191.66;1803093;78;30651;-45
2024/02/02 19:29:31;;;;;;;28.42;14.40;;;;;;;3.35;94.24;100183.64;1807554;78;25579;-46
2024/02/02 19:31:58;;;;;;;25.70;14.78;;;;;;;3.34;94.76;100179.89;1799476;78;27494;-45
2024/02/02 19:34:25;;;;;;;26.23;14.90;;;;;;;3.32;94.96;100164.62;1789814;79;25650;-45
2024/02/02 19:36:51;;;;;;;26.82;14.60;;;;;;;3.33;94.95;100179.61;1806070;78;25444;-46
2024/02/02 19:39:19;;;;;;;27.60;14.25;;;;;;;3.31;95.21;100173.19;1804100;78;25786;-48
2024/02/02 19:41:46;;;;;;;31.45;14.28;;;;;;;3.29;95.40;100164.62;1799740;78;25846;-46
2024/02/02 19:44:13;;;;;;;28.60;14.70;;;;;;;3.29;95.65;100157.16;1777833;78;28504;-46
2024/02/02 19:46:40;;;;;;;29.65;14.03;;;;;;;3.30;95.42;100151.55;1783279;78;25598;-45
2024/02/02 19:49:07;;;;;;;28.85;14.60;;;;;;;3.29;96.37;100144.58;1795264;78;25463;-47
2024/02/02 19:51:33;;;;;;;30.50;15.55;;;;;;;3.29;96.22;100133.09;1789605;79;25824;-45
2024/02/02 19:54:00;;;;;;;28.57;14.63;;;;;;;3.29;97.70;100126.41;1802512;78;25408;-45
2024/02/02 19:56:27;;;;;;;26.65;14.93;;;;;;;3.28;96.55;100132.27;1811475;78;27479;-45
2024/02/02 19:58:54;;;;;;;28.80;14.53;;;;;;;3.29;96.35;100129.88;1794218;78;26168;-45
2024/02/02 20:01:21;;;;;;;29.87;14.90;;;;;;;3.30;97.29;100104.76;1804552;78;25606;-46
2024/02/02 20:03:49;;;;;;;25.88;13.88;;;;;;;3.31;97.04;100113.03;1782598;78;25529;-46
2024/02/02 20:06:18;;;;;;;29.65;15.50;;;;;;;3.30;97.35;100102.59;1792766;79;25404;-45
2024/02/02 20:08:47;;;;;;;36.07;15.90;;;;;;;3.31;97.52;100096.98;1802044;78;27461;-45
2024/02/02 20:11:17;;;;;;;39.20;19.30;;;;;;;3.32;97.42;100097.27;1791792;79;25437;-48
2024/02/02 20:13:43;;;;;;;;;;;;;;;3.36;97.67;100073.48;1809351;78;25730;-46
2024/02/02 20:16:14;;;;;;;32.53;16.25;;;;;;;3.40;98.80;100073.75;1787180;79;25614;-47
2024/02/02 20:18:41;;;;;;;29.15;15.48;;;;;;;3.40;98.07;100052.35;1793714;78;25459;-46
2024/02/02 20:21:08;;;;;;;27.75;14.83;;;;;;;3.39;97.98;100054.23;1797471;78;28553;-45
2024/02/02 20:23:37;;;;;;;29.75;15.28;;;;;;;3.35;98.52;100049.13;1791064;79;26172;-46
2024/02/02 20:26:04;;;;;;;29.10;15.25;;;;;;;3.34;98.95;100037.64;1789344;79;25460;-46